Terminal Aerodrome Forecast
Issued by NWS

Home | Current Version | Previous Version | Graphics & Text | Print | Product List | Glossary On
Versions: 1 2 3 4 5 6 7 8 9 10 11 12
489
FTUS45 KGGW 232323
TAFSDY
TAF
KSDY 232323Z 2400/2424 32017G26KT P6SM SCT100
     FM240300 32008KT P6SM FEW100
     FM241800 33013G22KT P6SM FEW080=

USA.gov is the U.S. government's official web portal to all federal, state and local government web resources and services.